createdAt,value
2023-05-24T00:01:37.817Z,15.14
2023-05-24T00:04:05.996Z,15.12
2023-05-24T00:06:37.329Z,15.09
2023-05-24T00:09:05.652Z,15.11
2023-05-24T00:11:33.586Z,15.09
2023-05-24T00:14:01.570Z,15.09
2023-05-24T00:16:29.664Z,15.06
2023-05-24T00:18:59.247Z,15.00
2023-05-24T00:21:27.296Z,15.01
2023-05-24T00:23:56.638Z,14.98
2023-05-24T00:26:24.791Z,14.94
2023-05-24T00:28:52.760Z,14.91
2023-05-24T00:31:20.824Z,14.91
2023-05-24T00:33:48.858Z,14.84
2023-05-24T00:36:16.791Z,14.77
2023-05-24T00:38:44.748Z,14.72
2023-05-24T00:41:14.082Z,14.49
2023-05-24T00:43:43.385Z,14.64
2023-05-24T00:46:18.229Z,14.62
2023-05-24T00:48:47.129Z,14.39
2023-05-24T00:51:15.784Z,14.27
2023-05-24T00:53:49.916Z,13.95
2023-05-24T00:56:19.506Z,13.90
2023-05-24T00:58:48.601Z,13.90
2023-05-24T01:01:16.577Z,13.65
2023-05-24T01:03:44.632Z,13.62
2023-05-24T01:06:16.139Z,13.40
2023-05-24T01:08:56.228Z,13.21
2023-05-24T01:11:35.576Z,13.36
2023-05-24T01:14:16.404Z,13.62
2023-05-24T01:16:51.792Z,13.77
2023-05-24T01:19:43.520Z,13.87
2023-05-24T01:22:25.544Z,13.53
2023-05-24T01:25:03.813Z,13.27
2023-05-24T01:27:35.035Z,13.11
2023-05-24T01:30:04.708Z,12.95
2023-05-24T01:32:33.076Z,12.96
2023-05-24T01:35:01.271Z,13.17
2023-05-24T01:37:29.246Z,13.34
2023-05-24T01:39:57.447Z,13.40
2023-05-24T01:42:28.446Z,13.53
2023-05-24T01:45:07.292Z,13.71
2023-05-24T01:47:46.578Z,13.76
2023-05-24T01:50:22.479Z,13.90
2023-05-24T01:52:53.589Z,14.00
2023-05-24T01:55:23.205Z,13.98
2023-05-24T01:57:52.887Z,13.94
2023-05-24T02:00:23.628Z,13.91
2023-05-24T02:02:52.612Z,13.88
2023-05-24T02:05:20.751Z,13.91
2023-05-24T02:07:48.737Z,13.91
2023-05-24T02:10:16.925Z,13.79
2023-05-24T02:12:44.895Z,13.77
2023-05-24T02:15:14.957Z,14.01
2023-05-24T02:17:46.185Z,14.15
2023-05-24T02:20:14.667Z,14.20
2023-05-24T02:22:42.620Z,14.25
2023-05-24T02:25:10.948Z,14.26
2023-05-24T02:27:39.151Z,14.28
2023-05-24T02:30:08.598Z,14.25
2023-05-24T02:32:36.645Z,14.26
2023-05-24T02:35:07.723Z,14.27
2023-05-24T02:37:35.911Z,14.24
2023-05-24T02:40:04.325Z,14.23
2023-05-24T02:42:32.304Z,14.20
2023-05-24T02:45:00.319Z,14.15
2023-05-24T02:47:28.557Z,14.12
2023-05-24T02:49:57.299Z,14.00
2023-05-24T02:52:26.869Z,14.09
2023-05-24T02:54:54.836Z,14.09
2023-05-24T02:57:22.958Z,14.09
2023-05-24T02:59:51.065Z,14.06
2023-05-24T03:02:19.637Z,14.02
2023-05-24T03:04:47.613Z,13.99
2023-05-24T03:07:15.570Z,13.98
2023-05-24T03:09:44.988Z,13.95
2023-05-24T03:12:14.250Z,13.98
2023-05-24T03:14:42.216Z,14.01
2023-05-24T03:17:10.177Z,14.04
2023-05-24T03:19:38.187Z,14.05
2023-05-24T03:22:06.309Z,14.10
2023-05-24T03:24:34.684Z,14.14
2023-05-24T03:27:04.056Z,14.15
2023-05-24T03:29:32.461Z,14.20
2023-05-24T03:32:00.597Z,14.25
2023-05-24T03:34:28.631Z,14.33
2023-05-24T03:36:56.609Z,14.39
2023-05-24T03:39:24.611Z,14.43
2023-05-24T03:41:52.558Z,14.52
2023-05-24T03:44:21.887Z,14.70
2023-05-24T03:46:49.814Z,14.76
2023-05-24T03:49:17.834Z,14.99
2023-05-24T03:51:46.229Z,15.12
2023-05-24T03:54:14.245Z,15.31
2023-05-24T03:56:42.208Z,15.48
2023-05-24T03:59:10.178Z,15.66
2023-05-24T04:01:39.523Z,15.86
2023-05-24T04:04:07.469Z,16.07
2023-05-24T04:06:36.868Z,16.24
2023-05-24T04:09:05.989Z,16.48
2023-05-24T04:11:33.965Z,16.72
2023-05-24T04:14:01.967Z,16.87
2023-05-24T04:16:34.093Z,17.04
2023-05-24T04:19:04.362Z,17.30
2023-05-24T04:21:33.415Z,17.45
2023-05-24T04:24:01.744Z,17.72
2023-05-24T04:26:29.963Z,18.02
2023-05-24T04:28:58.361Z,18.10
2023-05-24T04:31:29.461Z,18.32
2023-05-24T04:33:59.054Z,18.53
2023-05-24T04:36:29.062Z,18.54
2023-05-24T04:41:32.448Z,18.45
2023-05-24T04:44:00.816Z,18.65
2023-05-24T04:46:29.128Z,18.81
2023-05-24T04:48:57.097Z,18.87
2023-05-24T04:51:25.234Z,18.99
2023-05-24T04:53:54.706Z,19.19
2023-05-24T04:56:22.991Z,19.43
2023-05-24T04:58:51.054Z,19.67
2023-05-24T05:01:19.164Z,20.00
2023-05-24T05:03:47.225Z,20.17
2023-05-24T05:06:15.394Z,20.33
2023-05-24T05:08:43.708Z,20.46
2023-05-24T05:11:13.073Z,20.60
2023-05-24T05:13:40.989Z,20.79
2023-05-24T05:16:09.527Z,20.83
2023-05-24T05:18:37.489Z,20.82
2023-05-24T05:21:05.495Z,20.81
2023-05-24T05:23:33.461Z,20.89
2023-05-24T05:26:01.439Z,20.91
2023-05-24T05:28:30.748Z,21.12
2023-05-24T05:30:58.898Z,20.94
2023-05-24T05:33:26.960Z,21.00
2023-05-24T05:35:55.195Z,20.59
2023-05-24T05:38:23.177Z,20.72
2023-05-24T05:40:51.266Z,21.17
2023-05-24T05:43:19.215Z,21.06
2023-05-24T05:45:48.655Z,21.02
2023-05-24T05:48:16.619Z,20.68
2023-05-24T05:50:44.652Z,20.50
2023-05-24T05:53:12.667Z,20.67
2023-05-24T05:55:40.616Z,20.49
2023-05-24T05:58:08.553Z,20.61
2023-05-24T06:00:36.629Z,20.97
2023-05-24T06:03:06.125Z,20.72
2023-05-24T06:05:34.163Z,21.25
2023-05-24T06:08:02.125Z,21.62
2023-05-24T06:10:30.095Z,21.90
2023-05-24T06:12:58.078Z,22.25
2023-05-24T06:15:26.106Z,22.03
2023-05-24T06:17:55.326Z,22.06
2023-05-24T06:20:24.751Z,22.21
2023-05-24T06:22:52.681Z,22.65
2023-05-24T06:25:21.163Z,22.76
2023-05-24T06:27:49.133Z,22.99
2023-05-24T06:30:17.130Z,23.18
2023-05-24T06:32:45.160Z,23.21
2023-05-24T06:35:13.132Z,22.88
2023-05-24T06:37:42.475Z,22.54
2023-05-24T06:40:11.207Z,22.63
2023-05-24T06:42:40.789Z,22.91
2023-05-24T06:45:10.013Z,23.24
2023-05-24T06:47:38.165Z,22.85
2023-05-24T06:50:07.317Z,22.61
2023-05-24T06:52:35.289Z,23.16
2023-05-24T06:55:05.053Z,23.36
2023-05-24T06:57:32.998Z,23.41
2023-05-24T07:00:00.964Z,23.46
2023-05-24T07:02:29.109Z,23.75
2023-05-24T07:04:57.260Z,23.76
2023-05-24T07:07:25.695Z,23.66
2023-05-24T07:09:53.704Z,23.55
2023-05-24T07:12:23.568Z,23.84
2023-05-24T07:14:51.785Z,24.24
2023-05-24T07:17:19.751Z,24.67
2023-05-24T07:19:47.711Z,24.17
2023-05-24T07:22:16.052Z,24.11
2023-05-24T07:24:44.051Z,23.85
2023-05-24T07:27:12.019Z,23.91
2023-05-24T07:29:41.393Z,24.59
2023-05-24T07:32:09.926Z,24.57
2023-05-24T07:34:39.741Z,24.69
2023-05-24T07:37:07.696Z,24.31
2023-05-24T07:39:35.745Z,24.27
2023-05-24T07:42:03.721Z,25.06
2023-05-24T07:44:31.681Z,25.66
2023-05-24T07:47:02.511Z,25.91
2023-05-24T07:49:30.461Z,26.34
2023-05-24T07:51:59.672Z,26.40
2023-05-24T07:54:27.694Z,26.13
2023-05-24T07:56:55.714Z,25.82
2023-05-24T07:59:23.969Z,26.00
2023-05-24T08:01:52.656Z,24.60
2023-05-24T08:04:22.409Z,25.07
2023-05-24T08:06:50.826Z,25.80
2023-05-24T08:09:18.871Z,26.06
2023-05-24T08:11:46.830Z,26.29
2023-05-24T08:14:14.865Z,26.13
2023-05-24T08:16:42.988Z,26.27
2023-05-24T08:19:10.952Z,26.10
2023-05-24T08:21:42.066Z,26.42
2023-05-24T08:24:09.988Z,26.67
2023-05-24T08:26:38.196Z,26.63
2023-05-24T08:29:06.244Z,26.81
2023-05-24T08:31:34.226Z,26.37
2023-05-24T08:34:02.724Z,26.21
2023-05-24T08:36:30.678Z,26.02
2023-05-24T08:39:00.296Z,26.46
2023-05-24T08:41:29.577Z,26.08
2023-05-24T08:44:02.526Z,26.21
2023-05-24T08:46:30.840Z,26.23
2023-05-24T08:48:59.975Z,26.35
2023-05-24T08:51:29.240Z,25.87
2023-05-24T08:53:59.805Z,25.42
2023-05-24T08:56:28.907Z,25.51
2023-05-24T08:58:57.152Z,25.76
2023-05-24T09:01:27.741Z,26.36
2023-05-24T09:03:58.221Z,26.42
2023-05-24T09:06:27.928Z,26.69
2023-05-24T09:08:57.065Z,26.98
2023-05-24T09:11:28.174Z,27.13
2023-05-24T09:13:58.279Z,26.92
2023-05-24T09:16:26.530Z,26.90
2023-05-24T09:18:54.480Z,26.45
2023-05-24T09:21:23.152Z,26.96
2023-05-24T09:23:51.348Z,27.48
2023-05-24T09:26:19.379Z,27.79
2023-05-24T09:28:49.551Z,27.61
2023-05-24T09:31:17.559Z,27.49
2023-05-24T09:33:49.728Z,27.51
2023-05-24T09:36:18.692Z,27.58
2023-05-24T09:38:46.653Z,27.18
2023-05-24T09:41:14.695Z,26.92
2023-05-24T09:43:50.890Z,27.11
2023-05-24T09:46:20.021Z,26.98
2023-05-24T09:48:57.640Z,27.45
2023-05-24T09:51:26.267Z,27.77
2023-05-24T09:53:58.568Z,27.84
2023-05-24T09:56:27.632Z,26.95
2023-05-24T09:58:58.058Z,27.06
2023-05-24T10:01:27.028Z,26.89
2023-05-24T10:03:56.179Z,26.87
2023-05-24T10:06:25.165Z,26.98
2023-05-24T10:08:54.470Z,27.04
2023-05-24T10:11:22.690Z,27.01
2023-05-24T10:13:51.357Z,27.55
2023-05-24T10:16:20.957Z,27.47
2023-05-24T10:18:48.983Z,27.38
2023-05-24T10:21:18.984Z,27.70
2023-05-24T10:23:54.446Z,27.20
2023-05-24T10:26:26.232Z,27.14
2023-05-24T10:28:58.968Z,27.21
2023-05-24T10:31:33.225Z,27.39
2023-05-24T10:34:08.478Z,27.74
2023-05-24T10:36:52.933Z,27.37
2023-05-24T10:39:22.695Z,27.44
2023-05-24T10:41:51.059Z,27.70
2023-05-24T10:44:21.283Z,27.61
2023-05-24T10:47:09.338Z,27.46
2023-05-24T10:49:37.351Z,27.62
2023-05-24T10:52:09.383Z,27.69
2023-05-24T10:54:39.830Z,27.78
2023-05-24T10:57:09.628Z,27.79
2023-05-24T10:59:39.438Z,27.24
2023-05-24T11:02:13.893Z,27.38
2023-05-24T11:04:44.505Z,27.46
2023-05-24T11:07:15.352Z,27.48
2023-05-24T11:09:47.243Z,27.80
2023-05-24T11:12:17.755Z,27.49
2023-05-24T11:14:49.985Z,27.76
2023-05-24T11:17:20.694Z,27.30
2023-05-24T11:19:51.825Z,27.51
2023-05-24T11:22:22.122Z,27.95
2023-05-24T11:24:50.507Z,27.99
2023-05-24T11:27:18.536Z,27.83
2023-05-24T11:29:47.879Z,27.67
2023-05-24T11:32:17.302Z,28.00
2023-05-24T11:34:47.869Z,27.40
2023-05-24T11:37:17.999Z,27.58
2023-05-24T11:39:52.569Z,27.76
2023-05-24T11:42:23.432Z,28.20
2023-05-24T11:44:51.659Z,28.43
2023-05-24T11:47:22.021Z,28.08
2023-05-24T11:49:52.863Z,28.22
2023-05-24T11:52:21.373Z,28.37
2023-05-24T11:54:50.841Z,28.59
2023-05-24T11:57:21.116Z,28.22
2023-05-24T11:59:49.634Z,27.76
2023-05-24T12:02:18.115Z,27.83
2023-05-24T12:04:46.933Z,27.69
2023-05-24T12:07:16.878Z,27.58
2023-05-24T12:09:44.934Z,27.37
2023-05-24T12:12:12.947Z,27.60
2023-05-24T12:14:41.155Z,27.03
2023-05-24T12:17:17.177Z,26.76
2023-05-24T12:19:45.232Z,27.13
2023-05-24T12:22:13.197Z,27.04
2023-05-24T12:24:42.586Z,27.04
2023-05-24T12:27:10.611Z,26.97
2023-05-24T12:29:40.752Z,26.47
2023-05-24T12:32:14.006Z,26.45
2023-05-24T12:34:43.953Z,26.40
2023-05-24T12:37:13.777Z,26.27
2023-05-24T12:39:44.456Z,26.28
2023-05-24T12:42:14.032Z,26.29
2023-05-24T12:44:42.483Z,26.43
2023-05-24T12:47:11.019Z,26.74
2023-05-24T12:49:38.996Z,26.96
2023-05-24T12:52:07.341Z,27.10
2023-05-24T12:54:35.333Z,27.07
2023-05-24T12:57:05.280Z,27.00
2023-05-24T12:59:35.134Z,26.96
2023-05-24T13:02:03.206Z,27.25
2023-05-24T13:04:33.795Z,27.10
2023-05-24T13:07:02.980Z,27.21
2023-05-24T13:09:30.988Z,27.36
2023-05-24T13:11:58.968Z,27.35
2023-05-24T13:14:28.670Z,27.38
2023-05-24T13:16:56.650Z,27.29
2023-05-24T13:19:24.605Z,27.01
2023-05-24T13:21:52.643Z,26.87
2023-05-24T13:24:20.643Z,27.01
2023-05-24T13:26:49.351Z,26.68
2023-05-24T13:29:34.298Z,26.86
2023-05-24T13:32:07.077Z,27.06
2023-05-24T13:34:35.066Z,26.93
2023-05-24T13:37:03.207Z,27.11
2023-05-24T13:39:31.212Z,26.87
2023-05-24T13:42:01.066Z,26.82
2023-05-24T13:44:29.556Z,26.95
2023-05-24T13:46:57.587Z,26.81
2023-05-24T13:49:27.786Z,26.47
2023-05-24T13:51:58.409Z,26.53
2023-05-24T13:54:27.813Z,26.74
2023-05-24T13:56:57.627Z,26.67
2023-05-24T13:59:25.861Z,26.68
2023-05-24T14:01:54.010Z,26.73
2023-05-24T14:04:22.044Z,26.80
2023-05-24T14:06:51.404Z,26.66
2023-05-24T14:09:21.342Z,26.57
2023-05-24T14:11:49.537Z,26.60
2023-05-24T14:16:51.882Z,26.83
2023-05-24T14:19:19.948Z,26.66
2023-05-24T14:21:47.906Z,26.75
2023-05-24T14:24:17.301Z,26.80
2023-05-24T14:26:47.564Z,26.46
2023-05-24T14:29:15.593Z,26.45
2023-05-24T14:31:43.678Z,26.64
2023-05-24T14:34:12.138Z,26.52
2023-05-24T14:36:41.664Z,26.57
2023-05-24T14:39:10.245Z,26.61
2023-05-24T14:41:39.563Z,26.41
2023-05-24T14:44:07.512Z,26.37
2023-05-24T14:46:36.048Z,26.47
2023-05-24T14:49:04.823Z,26.53
2023-05-24T14:51:32.822Z,26.60
2023-05-24T14:54:00.882Z,26.51
2023-05-24T14:56:29.065Z,26.36
2023-05-24T14:58:59.449Z,26.32
2023-05-24T15:01:27.505Z,26.39
2023-05-24T15:03:55.594Z,26.19
2023-05-24T15:06:23.678Z,26.05
2023-05-24T15:08:52.333Z,26.04
2023-05-24T15:11:20.302Z,25.98
2023-05-24T15:13:48.210Z,26.12
2023-05-24T15:16:18.138Z,25.90
2023-05-24T15:18:46.385Z,25.35
2023-05-24T15:21:14.349Z,25.14
2023-05-24T15:23:42.316Z,25.14
2023-05-24T15:26:10.258Z,25.33
2023-05-24T15:28:39.616Z,25.14
2023-05-24T15:31:07.676Z,25.24
2023-05-24T15:33:38.253Z,25.40
2023-05-24T15:36:06.885Z,25.24
2023-05-24T15:38:35.132Z,25.09
2023-05-24T15:41:03.942Z,25.03
2023-05-24T15:43:31.949Z,24.74
2023-05-24T15:45:59.948Z,24.95
2023-05-24T15:48:28.185Z,24.89
2023-05-24T15:51:53.551Z,25.00
2023-05-24T15:53:45.629Z,24.86
2023-05-24T15:56:13.680Z,24.78
2023-05-24T15:58:41.648Z,24.70
2023-05-24T16:01:09.730Z,24.82
2023-05-24T16:03:38.461Z,24.78
2023-05-24T16:06:08.636Z,24.91
2023-05-24T16:08:36.602Z,24.64
2023-05-24T16:11:08.257Z,24.16
2023-05-24T16:13:36.298Z,24.15
2023-05-24T16:16:04.335Z,24.09
2023-05-24T16:18:34.651Z,24.07
2023-05-24T16:21:02.772Z,24.12
2023-05-24T16:23:32.183Z,24.08
2023-05-24T16:26:00.143Z,24.14
2023-05-24T16:28:28.117Z,24.11
2023-05-24T16:30:57.513Z,24.17
2023-05-24T16:33:26.089Z,24.02
2023-05-24T16:35:56.722Z,23.77
2023-05-24T16:38:25.687Z,23.63
2023-05-24T16:40:55.561Z,23.61
2023-05-24T16:43:23.729Z,23.56
2023-05-24T16:45:51.963Z,23.48
2023-05-24T16:48:21.745Z,23.40
2023-05-24T16:50:50.474Z,23.54
2023-05-24T16:53:20.448Z,23.45
2023-05-24T16:55:53.587Z,23.46
2023-05-24T16:58:23.715Z,23.21
2023-05-24T17:00:54.314Z,23.14
2023-05-24T17:03:28.156Z,23.27
2023-05-24T17:06:01.997Z,23.10
2023-05-24T17:08:32.371Z,22.91
2023-05-24T17:11:00.327Z,22.87
2023-05-24T17:13:29.718Z,22.84
2023-05-24T17:15:58.440Z,22.51
2023-05-24T17:18:29.296Z,22.56
2023-05-24T17:20:57.686Z,22.23
2023-05-24T17:23:26.214Z,22.23
2023-05-24T17:25:55.587Z,21.88
2023-05-24T17:28:27.349Z,21.96
2023-05-24T17:30:57.473Z,21.76
2023-05-24T17:33:26.314Z,21.78
2023-05-24T17:35:56.591Z,21.60
2023-05-24T17:38:25.515Z,21.59
2023-05-24T17:40:57.124Z,21.73
2023-05-24T17:43:28.803Z,21.73
2023-05-24T17:46:03.668Z,21.75
2023-05-24T17:48:32.617Z,21.55
2023-05-24T17:51:01.983Z,21.64
2023-05-24T17:53:32.362Z,21.60
2023-05-24T17:56:00.592Z,21.58
2023-05-24T17:58:28.755Z,21.58
2023-05-24T18:00:58.196Z,21.54
2023-05-24T18:03:26.346Z,21.57
2023-05-24T18:05:54.269Z,21.51
2023-05-24T18:08:23.119Z,21.32
2023-05-24T18:10:51.053Z,21.28
2023-05-24T18:13:19.467Z,21.24
2023-05-24T18:15:47.483Z,21.06
2023-05-24T18:18:17.285Z,21.09
2023-05-24T18:20:45.408Z,21.06
2023-05-24T18:23:13.399Z,21.04
2023-05-24T18:25:43.970Z,20.89
2023-05-24T18:28:12.309Z,20.87
2023-05-24T18:30:40.282Z,20.78
2023-05-24T18:33:08.757Z,20.71
2023-05-24T18:35:38.358Z,20.53
2023-05-24T18:38:06.349Z,20.19
2023-05-24T18:40:34.327Z,20.02
2023-05-24T18:43:02.586Z,20.08
2023-05-24T18:45:30.522Z,19.74
2023-05-24T18:47:58.872Z,19.60
2023-05-24T18:50:26.867Z,19.56
2023-05-24T18:52:56.205Z,19.77
2023-05-24T18:55:24.164Z,19.87
2023-05-24T18:57:52.253Z,19.87
2023-05-24T19:00:22.829Z,19.38
2023-05-24T19:02:51.118Z,19.26
2023-05-24T19:05:19.126Z,19.23
2023-05-24T19:07:47.068Z,19.39
2023-05-24T19:10:16.408Z,19.43
2023-05-24T19:12:44.451Z,19.37
2023-05-24T19:15:12.539Z,19.17
2023-05-24T19:17:40.515Z,19.22
2023-05-24T19:20:09.296Z,19.23
2023-05-24T19:22:37.254Z,19.27
2023-05-24T19:25:05.698Z,18.98
2023-05-24T19:27:36.283Z,18.70
2023-05-24T19:30:06.918Z,18.94
2023-05-24T19:32:35.841Z,18.92
2023-05-24T19:35:03.954Z,18.90
2023-05-24T19:37:31.890Z,18.88
2023-05-24T19:40:00.344Z,18.80
2023-05-24T19:42:28.283Z,18.80
2023-05-24T19:44:57.602Z,18.88
2023-05-24T19:47:25.780Z,18.69
2023-05-24T19:49:53.755Z,18.41
2023-05-24T19:52:21.775Z,18.39
2023-05-24T19:54:49.786Z,18.29
2023-05-24T19:57:17.723Z,18.10
2023-05-24T19:59:45.749Z,18.15
2023-05-24T20:02:15.160Z,18.09
2023-05-24T20:04:44.115Z,18.05
2023-05-24T20:07:12.295Z,17.90
2023-05-24T20:09:41.710Z,18.05
2023-05-24T20:12:09.850Z,18.24
2023-05-24T20:14:37.809Z,18.28
2023-05-24T20:17:06.254Z,18.25
2023-05-24T20:19:35.772Z,18.27
2023-05-24T20:22:03.758Z,18.20
2023-05-24T20:24:31.752Z,18.20
2023-05-24T20:26:59.730Z,18.15
2023-05-24T20:29:28.413Z,18.14
2023-05-24T20:31:56.462Z,18.09
2023-05-24T20:34:24.436Z,18.11
2023-05-24T20:36:54.210Z,18.08
2023-05-24T20:39:22.184Z,18.11
2023-05-24T20:41:50.157Z,18.07
2023-05-24T20:44:18.095Z,17.96
2023-05-24T20:46:46.147Z,17.91
2023-05-24T20:49:14.096Z,17.87
2023-05-24T20:51:42.065Z,17.76
2023-05-24T20:54:13.323Z,17.61
2023-05-24T20:56:41.271Z,17.55
2023-05-24T20:59:09.255Z,17.62
2023-05-24T21:01:37.400Z,17.59
2023-05-24T21:04:05.424Z,17.55
2023-05-24T21:06:34.213Z,17.59
2023-05-24T21:09:02.374Z,17.52
2023-05-24T21:11:32.612Z,17.49
2023-05-24T21:14:00.615Z,17.45
2023-05-24T21:16:29.201Z,17.41
2023-05-24T21:18:57.227Z,17.37
2023-05-24T21:21:25.206Z,17.30
2023-05-24T21:23:53.155Z,17.34
2023-05-24T21:26:22.810Z,17.31
2023-05-24T21:28:52.179Z,17.32
2023-05-24T21:31:20.886Z,17.30
2023-05-24T21:33:48.932Z,17.19
2023-05-24T21:36:18.514Z,17.14
2023-05-24T21:38:46.455Z,17.14
2023-05-24T21:41:14.428Z,17.12
2023-05-24T21:43:43.013Z,17.09
2023-05-24T21:46:12.380Z,17.09
2023-05-24T21:48:40.406Z,16.99
2023-05-24T21:51:08.381Z,16.99
2023-05-24T21:53:36.317Z,17.00
2023-05-24T21:56:04.271Z,16.98
2023-05-24T21:58:32.241Z,16.99
2023-05-24T22:01:00.202Z,17.00
2023-05-24T22:03:29.765Z,16.84
2023-05-24T22:05:57.834Z,16.72
2023-05-24T22:08:25.819Z,16.64
2023-05-24T22:10:53.914Z,16.75
2023-05-24T22:13:21.874Z,16.82
2023-05-24T22:15:49.846Z,16.86
2023-05-24T22:18:18.476Z,16.91
2023-05-24T22:20:47.946Z,16.93
2023-05-24T22:23:16.014Z,16.79
2023-05-24T22:25:44.946Z,16.82
2023-05-24T22:28:13.106Z,16.79
2023-05-24T22:30:41.804Z,16.78
2023-05-24T22:33:09.790Z,16.77
2023-05-24T22:35:37.812Z,16.81
2023-05-24T22:38:07.379Z,16.77
2023-05-24T22:40:36.693Z,16.71
2023-05-24T22:43:04.794Z,16.81
2023-05-24T22:45:32.902Z,16.89
2023-05-24T22:48:00.895Z,16.91
2023-05-24T22:50:28.932Z,16.93
2023-05-24T22:52:56.995Z,16.95
2023-05-24T22:55:26.324Z,16.93
2023-05-24T22:57:54.352Z,16.94
2023-05-24T23:00:22.668Z,16.95
2023-05-24T23:02:50.685Z,16.69
2023-05-24T23:05:21.708Z,16.36
2023-05-24T23:07:49.738Z,16.61
2023-05-24T23:10:17.857Z,16.67
2023-05-24T23:12:47.191Z,16.63
2023-05-24T23:15:18.406Z,16.69
2023-05-24T23:17:47.131Z,16.71
2023-05-24T23:20:15.499Z,16.60
2023-05-24T23:22:43.629Z,16.17
2023-05-24T23:25:11.943Z,16.39
2023-05-24T23:27:40.811Z,16.56
2023-05-24T23:30:11.086Z,16.59
2023-05-24T23:32:39.074Z,16.64
2023-05-24T23:35:07.770Z,16.63
2023-05-24T23:37:35.724Z,16.61
2023-05-24T23:40:06.626Z,16.55
2023-05-24T23:42:34.853Z,16.56
2023-05-24T23:45:02.797Z,16.57
2023-05-24T23:47:32.134Z,16.14
2023-05-24T23:50:00.169Z,16.01
2023-05-24T23:52:28.344Z,15.99
2023-05-24T23:54:56.289Z,16.15
2023-05-24T23:57:25.024Z,16.28
2023-05-24T23:59:53.054Z,16.26
